EWG6TZ EDDK-EGLL
Flight info
| Callsign | EWG6TZ |
|---|---|
| Flight time | 0h 57m |
| Altitude | 32000 |
| Route | NVO3B NVO Y868 NAVAK DCT DENUT L608 LOGAN |
| Aircraft | A321/M-SDE3FGHIRWY/LB1 |
Departure
| Time | 2026-04-25 19:12 |
|---|---|
| Airport | Cologne Bonn Airport (EDDK) |
Arrival
| Time | 2026-04-25 20:09 |
|---|---|
| Airport | London Heathrow Airport (EGLL) |
| Time | Latitude | Longitude | Altitude | Speed | Heading |
|---|---|---|---|---|---|
| 2026-04-25 18:38 | 50.87984 | 7.12374 | 230 ft | 0 kts | 215° |
| 2026-04-25 18:59 | 50.87998 | 7.12390 | 205 ft | 3 kts | 215° |
| 2026-04-25 18:59 | 50.88028 | 7.12424 | 233 ft | 3 kts | 215° |
| 2026-04-25 19:00 | 50.88064 | 7.12435 | 233 ft | 1 kts | 161° |
| 2026-04-25 19:00 | 50.88065 | 7.12435 | 233 ft | 0 kts | 161° |
| 2026-04-25 19:03 | 50.88063 | 7.12436 | 233 ft | 2 kts | 161° |
| 2026-04-25 19:04 | 50.87984 | 7.12522 | 230 ft | 12 kts | 136° |
| 2026-04-25 19:04 | 50.87916 | 7.12608 | 230 ft | 12 kts | 158° |
| 2026-04-25 19:05 | 50.87750 | 7.12725 | 230 ft | 15 kts | 137° |
| 2026-04-25 19:05 | 50.87579 | 7.12972 | 230 ft | 18 kts | 137° |
| 2026-04-25 19:05 | 50.87485 | 7.13107 | 232 ft | 18 kts | 137° |
| 2026-04-25 19:06 | 50.87389 | 7.13247 | 233 ft | 19 kts | 137° |
| 2026-04-25 19:06 | 50.87192 | 7.13534 | 239 ft | 19 kts | 136° |
| 2026-04-25 19:06 | 50.87099 | 7.13679 | 241 ft | 19 kts | 133° |
| 2026-04-25 19:07 | 50.86906 | 7.13950 | 243 ft | 19 kts | 139° |
| 2026-04-25 19:07 | 50.86816 | 7.14079 | 248 ft | 16 kts | 137° |
| 2026-04-25 19:08 | 50.86659 | 7.14246 | 257 ft | 12 kts | 137° |
| 2026-04-25 19:08 | 50.86570 | 7.14374 | 258 ft | 20 kts | 138° |
| 2026-04-25 19:09 | 50.86267 | 7.14808 | 269 ft | 18 kts | 137° |
| 2026-04-25 19:09 | 50.86205 | 7.14898 | 270 ft | 18 kts | 137° |
| 2026-04-25 19:09 | 50.86036 | 7.15202 | 277 ft | 13 kts | 89° |
| 2026-04-25 19:10 | 50.86083 | 7.15327 | 276 ft | 14 kts | 35° |
| 2026-04-25 19:10 | 50.86184 | 7.15349 | 276 ft | 16 kts | 348° |
| 2026-04-25 19:10 | 50.86304 | 7.15307 | 272 ft | 19 kts | 348° |
| 2026-04-25 19:10 | 50.86376 | 7.15323 | 269 ft | 7 kts | 0° |
| 2026-04-25 19:11 | 50.86417 | 7.15272 | 268 ft | 0 kts | 317° |
| 2026-04-25 19:11 | 50.86429 | 7.15255 | 268 ft | 12 kts | 317° |
| 2026-04-25 19:11 | 50.86688 | 7.14879 | 259 ft | 90 kts | 317° |
| 2026-04-25 19:11 | 50.87322 | 7.13950 | 278 ft | 152 kts | 316° |
| 2026-04-25 19:12 | 50.88080 | 7.12827 | 1046 ft | 147 kts | 316° |
| 2026-04-25 19:12 | 50.88815 | 7.11739 | 1853 ft | 148 kts | 318° |
| 2026-04-25 19:12 | 50.89599 | 7.10580 | 2324 ft | 163 kts | 318° |
| 2026-04-25 19:12 | 50.90475 | 7.09290 | 2707 ft | 180 kts | 318° |
| 2026-04-25 19:13 | 50.91349 | 7.07773 | 3178 ft | 192 kts | 302° |
| 2026-04-25 19:13 | 50.91765 | 7.05707 | 3623 ft | 209 kts | 278° |
| 2026-04-25 19:13 | 50.91559 | 7.03291 | 3889 ft | 236 kts | 255° |
| 2026-04-25 19:13 | 50.90829 | 7.00783 | 4249 ft | 261 kts | 244° |
| 2026-04-25 19:14 | 50.89908 | 6.98262 | 5036 ft | 266 kts | 242° |
| 2026-04-25 19:14 | 50.89255 | 6.96617 | 5606 ft | 266 kts | 240° |
| 2026-04-25 19:14 | 50.88049 | 6.93169 | 6638 ft | 270 kts | 251° |
| 2026-04-25 19:14 | 50.87416 | 6.90346 | 7317 ft | 275 kts | 256° |
| 2026-04-25 19:15 | 50.86906 | 6.87416 | 8014 ft | 278 kts | 261° |
| 2026-04-25 19:15 | 50.86491 | 6.84415 | 8797 ft | 280 kts | 261° |
| 2026-04-25 19:15 | 50.86030 | 6.81405 | 9597 ft | 283 kts | 257° |
| 2026-04-25 19:15 | 50.85434 | 6.78422 | 10357 ft | 286 kts | 254° |
| 2026-04-25 19:16 | 50.84755 | 6.75366 | 10718 ft | 304 kts | 253° |
| 2026-04-25 19:16 | 50.84026 | 6.72114 | 10947 ft | 324 kts | 253° |
| 2026-04-25 19:16 | 50.83257 | 6.68713 | 11241 ft | 339 kts | 253° |
| 2026-04-25 19:16 | 50.82506 | 6.65123 | 11888 ft | 340 kts | 259° |
| 2026-04-25 19:17 | 50.82243 | 6.61477 | 12575 ft | 338 kts | 272° |
| 2026-04-25 19:17 | 50.82344 | 6.57754 | 13269 ft | 340 kts | 275° |
| 2026-04-25 19:17 | 50.82430 | 6.54009 | 13954 ft | 342 kts | 274° |
| 2026-04-25 19:17 | 50.82486 | 6.50226 | 14573 ft | 345 kts | 273° |
| 2026-04-25 19:18 | 50.82526 | 6.46424 | 15165 ft | 348 kts | 273° |
| 2026-04-25 19:18 | 50.82560 | 6.42578 | 15749 ft | 351 kts | 272° |
| 2026-04-25 19:18 | 50.82593 | 6.38691 | 16330 ft | 354 kts | 273° |
| 2026-04-25 19:18 | 50.82630 | 6.34776 | 16904 ft | 358 kts | 273° |
| 2026-04-25 19:19 | 50.82672 | 6.30828 | 17466 ft | 361 kts | 273° |
| 2026-04-25 19:19 | 50.82717 | 6.26844 | 18023 ft | 364 kts | 273° |
| 2026-04-25 19:19 | 50.82760 | 6.22811 | 18561 ft | 368 kts | 273° |
| 2026-04-25 19:19 | 50.82787 | 6.20135 | 18876 ft | 370 kts | 272° |
| 2026-04-25 19:20 | 50.82840 | 6.14665 | 19563 ft | 373 kts | 272° |
| 2026-04-25 19:20 | 50.82874 | 6.10609 | 20066 ft | 374 kts | 272° |
| 2026-04-25 19:20 | 50.82907 | 6.06486 | 20569 ft | 376 kts | 272° |
| 2026-04-25 19:20 | 50.82941 | 6.02335 | 21067 ft | 378 kts | 272° |
| 2026-04-25 19:21 | 50.82939 | 5.98173 | 21567 ft | 380 kts | 271° |
| 2026-04-25 19:21 | 50.83201 | 5.89817 | 22522 ft | 381 kts | 283° |
| 2026-04-25 19:21 | 50.83892 | 5.85760 | 22988 ft | 383 kts | 287° |
| 2026-04-25 19:22 | 50.84652 | 5.81720 | 23463 ft | 384 kts | 287° |
| 2026-04-25 19:22 | 50.85430 | 5.77667 | 23914 ft | 386 kts | 287° |
| 2026-04-25 19:22 | 50.87009 | 5.69492 | 24697 ft | 390 kts | 287° |
| 2026-04-25 19:23 | 50.87797 | 5.65373 | 25068 ft | 392 kts | 287° |
| 2026-04-25 19:23 | 50.89501 | 5.57121 | 25808 ft | 396 kts | 289° |
| 2026-04-25 19:23 | 50.90424 | 5.52993 | 26164 ft | 399 kts | 290° |
| 2026-04-25 19:24 | 50.91364 | 5.48848 | 26528 ft | 401 kts | 290° |
| 2026-04-25 19:24 | 50.92308 | 5.44673 | 26889 ft | 403 kts | 289° |
| 2026-04-25 19:24 | 50.94167 | 5.36292 | 27581 ft | 408 kts | 289° |
| 2026-04-25 19:25 | 50.96029 | 5.27749 | 28272 ft | 412 kts | 289° |
| 2026-04-25 19:25 | 50.96962 | 5.23435 | 28621 ft | 415 kts | 289° |
| 2026-04-25 19:25 | 50.97899 | 5.19090 | 28963 ft | 417 kts | 288° |
| 2026-04-25 19:26 | 50.98837 | 5.14729 | 29283 ft | 419 kts | 288° |
| 2026-04-25 19:26 | 50.99785 | 5.10328 | 29604 ft | 422 kts | 288° |
| 2026-04-25 19:26 | 51.00735 | 5.05907 | 29916 ft | 424 kts | 288° |
| 2026-04-25 19:26 | 51.01687 | 5.01471 | 30227 ft | 426 kts | 288° |
| 2026-04-25 19:27 | 51.02645 | 4.96994 | 30489 ft | 428 kts | 288° |
| 2026-04-25 19:27 | 51.03280 | 4.94018 | 30647 ft | 430 kts | 288° |
| 2026-04-25 19:27 | 51.04566 | 4.87986 | 30965 ft | 432 kts | 288° |
| 2026-04-25 19:27 | 51.05531 | 4.83449 | 31199 ft | 434 kts | 288° |
| 2026-04-25 19:28 | 51.06499 | 4.78898 | 31458 ft | 435 kts | 288° |
| 2026-04-25 19:28 | 51.07463 | 4.74353 | 31775 ft | 434 kts | 288° |
| 2026-04-25 19:28 | 51.08424 | 4.69805 | 32089 ft | 434 kts | 288° |
| 2026-04-25 19:28 | 51.09379 | 4.65256 | 32206 ft | 430 kts | 288° |
| 2026-04-25 19:29 | 51.10310 | 4.60810 | 32218 ft | 419 kts | 288° |
| 2026-04-25 19:29 | 51.11230 | 4.56433 | 32223 ft | 416 kts | 288° |
| 2026-04-25 19:29 | 51.13063 | 4.47723 | 32221 ft | 415 kts | 288° |
| 2026-04-25 19:30 | 51.14888 | 4.38997 | 32219 ft | 415 kts | 288° |
| 2026-04-25 19:30 | 51.16704 | 4.30246 | 32222 ft | 416 kts | 287° |
| 2026-04-25 19:31 | 51.18490 | 4.21549 | 32224 ft | 416 kts | 287° |
| 2026-04-25 19:31 | 51.20289 | 4.12771 | 32225 ft | 417 kts | 287° |
| 2026-04-25 19:32 | 51.22090 | 4.03980 | 32229 ft | 417 kts | 287° |
| 2026-04-25 19:32 | 51.23291 | 3.98091 | 32225 ft | 417 kts | 287° |
| 2026-04-25 19:33 | 51.25672 | 3.86367 | 32231 ft | 418 kts | 287° |
| 2026-04-25 19:33 | 51.27456 | 3.77530 | 32230 ft | 418 kts | 287° |
| 2026-04-25 19:34 | 51.29225 | 3.68749 | 32236 ft | 418 kts | 287° |
| 2026-04-25 19:34 | 51.30995 | 3.59891 | 32236 ft | 418 kts | 287° |
| 2026-04-25 19:35 | 51.32757 | 3.51034 | 32232 ft | 419 kts | 287° |
| 2026-04-25 19:35 | 51.34517 | 3.42150 | 32232 ft | 419 kts | 287° |
| 2026-04-25 19:36 | 51.36275 | 3.33257 | 32230 ft | 419 kts | 287° |
| 2026-04-25 19:36 | 51.38029 | 3.24362 | 32226 ft | 419 kts | 287° |
| 2026-04-25 19:37 | 51.39770 | 3.15439 | 32228 ft | 420 kts | 287° |
| 2026-04-25 19:37 | 51.41560 | 3.06540 | 32234 ft | 420 kts | 289° |
| 2026-04-25 19:38 | 51.43627 | 2.97780 | 32237 ft | 420 kts | 291° |
| 2026-04-25 19:38 | 51.45751 | 2.89112 | 32238 ft | 420 kts | 291° |
| 2026-04-25 19:39 | 51.47832 | 2.80351 | 32242 ft | 420 kts | 290° |
| 2026-04-25 19:39 | 51.49576 | 2.71415 | 32246 ft | 420 kts | 281° |
| 2026-04-25 19:40 | 51.50736 | 2.62231 | 32252 ft | 420 kts | 281° |
| 2026-04-25 19:40 | 51.51889 | 2.53034 | 32138 ft | 420 kts | 281° |
| 2026-04-25 19:41 | 51.52459 | 2.48453 | 31881 ft | 418 kts | 281° |
| 2026-04-25 19:41 | 51.53026 | 2.43885 | 31626 ft | 416 kts | 281° |
| 2026-04-25 19:41 | 51.53588 | 2.39338 | 31371 ft | 414 kts | 281° |
| 2026-04-25 19:41 | 51.53775 | 2.37813 | 31291 ft | 414 kts | 281° |
| 2026-04-25 19:42 | 51.54690 | 2.30346 | 30658 ft | 406 kts | 281° |
| 2026-04-25 19:42 | 51.55227 | 2.25921 | 30157 ft | 402 kts | 281° |
| 2026-04-25 19:42 | 51.55758 | 2.21542 | 29671 ft | 396 kts | 281° |
| 2026-04-25 19:42 | 51.56280 | 2.17221 | 29210 ft | 390 kts | 281° |
| 2026-04-25 19:43 | 51.56792 | 2.12970 | 28761 ft | 385 kts | 281° |
| 2026-04-25 19:43 | 51.57297 | 2.08775 | 28319 ft | 380 kts | 281° |
| 2026-04-25 19:43 | 51.57795 | 2.04634 | 27886 ft | 375 kts | 281° |
| 2026-04-25 19:43 | 51.58286 | 2.00536 | 27464 ft | 371 kts | 281° |
| 2026-04-25 19:44 | 51.58763 | 1.96542 | 27056 ft | 366 kts | 281° |
| 2026-04-25 19:44 | 51.59236 | 1.92546 | 26657 ft | 361 kts | 281° |
| 2026-04-25 19:44 | 51.59702 | 1.88604 | 26263 ft | 357 kts | 281° |
| 2026-04-25 19:44 | 51.60162 | 1.84705 | 25886 ft | 353 kts | 281° |
| 2026-04-25 19:45 | 51.60616 | 1.80849 | 25521 ft | 350 kts | 281° |
| 2026-04-25 19:45 | 51.61067 | 1.77017 | 25151 ft | 348 kts | 281° |
| 2026-04-25 19:45 | 51.61512 | 1.73213 | 24789 ft | 345 kts | 281° |
| 2026-04-25 19:45 | 51.61955 | 1.69420 | 24428 ft | 343 kts | 281° |
| 2026-04-25 19:46 | 51.62393 | 1.65658 | 24062 ft | 341 kts | 281° |
| 2026-04-25 19:46 | 51.62826 | 1.61920 | 23659 ft | 339 kts | 281° |
| 2026-04-25 19:46 | 51.63255 | 1.58199 | 23270 ft | 337 kts | 281° |
| 2026-04-25 19:46 | 51.63680 | 1.54508 | 22904 ft | 335 kts | 281° |
| 2026-04-25 19:47 | 51.64104 | 1.50829 | 22506 ft | 333 kts | 281° |
| 2026-04-25 19:47 | 51.64525 | 1.47173 | 22128 ft | 331 kts | 281° |
| 2026-04-25 19:47 | 51.64943 | 1.43539 | 21733 ft | 329 kts | 281° |
| 2026-04-25 19:47 | 51.65356 | 1.39929 | 21336 ft | 327 kts | 281° |
| 2026-04-25 19:48 | 51.65763 | 1.36334 | 20939 ft | 325 kts | 281° |
| 2026-04-25 19:48 | 51.66163 | 1.32758 | 20534 ft | 324 kts | 280° |
| 2026-04-25 19:48 | 51.66301 | 1.29104 | 19769 ft | 332 kts | 270° |
| 2026-04-25 19:48 | 51.66278 | 1.26638 | 19450 ft | 332 kts | 270° |
| 2026-04-25 19:49 | 51.66242 | 1.22941 | 19031 ft | 328 kts | 270° |
| 2026-04-25 19:49 | 51.66216 | 1.20514 | 18763 ft | 326 kts | 270° |
| 2026-04-25 19:49 | 51.66147 | 1.14488 | 18042 ft | 321 kts | 270° |
| 2026-04-25 19:49 | 51.66105 | 1.10927 | 17643 ft | 316 kts | 270° |
| 2026-04-25 19:50 | 51.66019 | 1.03931 | 16853 ft | 310 kts | 270° |
| 2026-04-25 19:50 | 51.65991 | 1.01591 | 16586 ft | 309 kts | 270° |
| 2026-04-25 19:50 | 51.65937 | 0.97030 | 16073 ft | 306 kts | 270° |
| 2026-04-25 19:51 | 51.65907 | 0.94715 | 15810 ft | 305 kts | 270° |
| 2026-04-25 19:51 | 51.65861 | 0.91347 | 15434 ft | 304 kts | 270° |
| 2026-04-25 19:51 | 51.65814 | 0.87952 | 15040 ft | 302 kts | 270° |
| 2026-04-25 19:51 | 51.65769 | 0.84574 | 14656 ft | 301 kts | 270° |
| 2026-04-25 19:52 | 51.65721 | 0.81219 | 14272 ft | 300 kts | 270° |
| 2026-04-25 19:52 | 51.65672 | 0.77872 | 13881 ft | 298 kts | 270° |
| 2026-04-25 19:52 | 51.65623 | 0.74544 | 13486 ft | 297 kts | 270° |
| 2026-04-25 19:52 | 51.65574 | 0.71231 | 13107 ft | 296 kts | 270° |
| 2026-04-25 19:53 | 51.65527 | 0.67928 | 12733 ft | 294 kts | 270° |
| 2026-04-25 19:53 | 51.65477 | 0.64643 | 12360 ft | 293 kts | 270° |
| 2026-04-25 19:53 | 51.65426 | 0.61367 | 11990 ft | 292 kts | 270° |
| 2026-04-25 19:53 | 51.65374 | 0.58109 | 11626 ft | 291 kts | 270° |
| 2026-04-25 19:54 | 51.65319 | 0.54866 | 11256 ft | 289 kts | 270° |
| 2026-04-25 19:54 | 51.65265 | 0.51638 | 10896 ft | 288 kts | 270° |
| 2026-04-25 19:54 | 51.65213 | 0.48412 | 10535 ft | 288 kts | 269° |
| 2026-04-25 19:54 | 51.65178 | 0.46294 | 10437 ft | 285 kts | 269° |
| 2026-04-25 19:55 | 51.65109 | 0.42024 | 9915 ft | 285 kts | 269° |
| 2026-04-25 19:55 | 51.65056 | 0.38835 | 9483 ft | 284 kts | 269° |
| 2026-04-25 19:55 | 51.65000 | 0.35662 | 9073 ft | 283 kts | 269° |
| 2026-04-25 19:55 | 51.64938 | 0.32501 | 8666 ft | 281 kts | 269° |
| 2026-04-25 19:56 | 51.64876 | 0.29366 | 8290 ft | 279 kts | 269° |
| 2026-04-25 19:56 | 51.64816 | 0.26297 | 8218 ft | 279 kts | 269° |
| 2026-04-25 19:56 | 51.64755 | 0.23163 | 8222 ft | 281 kts | 269° |
| 2026-04-25 19:56 | 51.64693 | 0.20025 | 8220 ft | 281 kts | 269° |
| 2026-04-25 19:57 | 51.64630 | 0.16879 | 8221 ft | 281 kts | 269° |
| 2026-04-25 19:57 | 51.64561 | 0.13740 | 8222 ft | 281 kts | 268° |
| 2026-04-25 19:57 | 51.64423 | 0.10603 | 8220 ft | 281 kts | 266° |
| 2026-04-25 19:57 | 51.64263 | 0.07465 | 8219 ft | 281 kts | 266° |
| 2026-04-25 19:58 | 51.64101 | 0.04327 | 8222 ft | 281 kts | 266° |
| 2026-04-25 19:58 | 51.63936 | 0.01196 | 8220 ft | 281 kts | 266° |
| 2026-04-25 19:58 | 51.63769 | -0.01938 | 8218 ft | 281 kts | 266° |
| 2026-04-25 19:58 | 51.63602 | -0.05071 | 8221 ft | 281 kts | 266° |
| 2026-04-25 19:59 | 51.63438 | -0.08189 | 8027 ft | 278 kts | 266° |
| 2026-04-25 19:59 | 51.63275 | -0.11283 | 7631 ft | 277 kts | 266° |
| 2026-04-25 19:59 | 51.63111 | -0.14365 | 7307 ft | 274 kts | 266° |
| 2026-04-25 19:59 | 51.62949 | -0.17433 | 7268 ft | 277 kts | 266° |
| 2026-04-25 20:00 | 51.62786 | -0.20529 | 7278 ft | 278 kts | 266° |
| 2026-04-25 20:00 | 51.62678 | -0.22587 | 7277 ft | 278 kts | 266° |
| 2026-04-25 20:00 | 51.62463 | -0.26731 | 7280 ft | 278 kts | 266° |
| 2026-04-25 20:00 | 51.62303 | -0.29830 | 7277 ft | 278 kts | 266° |
| 2026-04-25 20:01 | 51.61989 | -0.35989 | 7222 ft | 278 kts | 266° |
| 2026-04-25 20:01 | 51.61830 | -0.39124 | 7216 ft | 278 kts | 266° |
| 2026-04-25 20:01 | 51.61675 | -0.42183 | 7216 ft | 278 kts | 266° |
| 2026-04-25 20:02 | 51.61471 | -0.45272 | 7211 ft | 278 kts | 257° |
| 2026-04-25 20:02 | 51.60654 | -0.48068 | 7171 ft | 278 kts | 235° |
| 2026-04-25 20:02 | 51.59479 | -0.50514 | 6786 ft | 277 kts | 231° |
| 2026-04-25 20:02 | 51.58262 | -0.52909 | 6395 ft | 275 kts | 232° |
| 2026-04-25 20:03 | 51.57344 | -0.55580 | 5987 ft | 273 kts | 249° |
| 2026-04-25 20:03 | 51.56685 | -0.58433 | 5599 ft | 272 kts | 251° |
| 2026-04-25 20:03 | 51.56059 | -0.61294 | 5208 ft | 271 kts | 251° |
| 2026-04-25 20:03 | 51.55444 | -0.64150 | 4846 ft | 269 kts | 251° |
| 2026-04-25 20:04 | 51.54847 | -0.66935 | 4708 ft | 258 kts | 251° |
| 2026-04-25 20:04 | 51.54276 | -0.69603 | 4583 ft | 247 kts | 251° |
| 2026-04-25 20:04 | 51.53681 | -0.72081 | 4464 ft | 231 kts | 239° |
| 2026-04-25 20:04 | 51.52575 | -0.73771 | 4339 ft | 214 kts | 205° |
| 2026-04-25 20:05 | 51.51189 | -0.74258 | 4205 ft | 197 kts | 184° |
| 2026-04-25 20:05 | 51.49851 | -0.74372 | 3909 ft | 191 kts | 181° |
| 2026-04-25 20:05 | 51.48558 | -0.74094 | 3560 ft | 188 kts | 153° |
| 2026-04-25 20:05 | 51.47714 | -0.72582 | 3110 ft | 190 kts | 107° |
| 2026-04-25 20:06 | 51.47642 | -0.70513 | 2801 ft | 184 kts | 88° |
| 2026-04-25 20:06 | 51.47654 | -0.68487 | 2530 ft | 174 kts | 89° |
| 2026-04-25 20:06 | 51.47662 | -0.66615 | 2311 ft | 167 kts | 89° |
| 2026-04-25 20:06 | 51.47671 | -0.64768 | 2088 ft | 164 kts | 89° |
| 2026-04-25 20:07 | 51.47681 | -0.62939 | 1873 ft | 163 kts | 89° |
| 2026-04-25 20:07 | 51.47690 | -0.61126 | 1657 ft | 163 kts | 89° |
| 2026-04-25 20:07 | 51.47699 | -0.59346 | 1433 ft | 155 kts | 89° |
| 2026-04-25 20:07 | 51.47707 | -0.57669 | 1229 ft | 146 kts | 89° |
| 2026-04-25 20:08 | 51.47715 | -0.56074 | 1041 ft | 142 kts | 89° |
| 2026-04-25 20:08 | 51.47722 | -0.54497 | 844 ft | 140 kts | 89° |
| 2026-04-25 20:08 | 51.47729 | -0.52948 | 670 ft | 138 kts | 90° |
| 2026-04-25 20:08 | 51.47736 | -0.51422 | 490 ft | 136 kts | 90° |
| 2026-04-25 20:09 | 51.47742 | -0.49911 | 306 ft | 134 kts | 90° |
| 2026-04-25 20:09 | 51.47747 | -0.48423 | 134 ft | 134 kts | 90° |
| 2026-04-25 20:09 | 51.47753 | -0.47041 | 89 ft | 104 kts | 90° |
| 2026-04-25 20:09 | 51.47756 | -0.46184 | 91 ft | 48 kts | 90° |
| 2026-04-25 20:10 | 51.47757 | -0.45824 | 86 ft | 26 kts | 91° |
| 2026-04-25 20:10 | 51.47757 | -0.45609 | 87 ft | 15 kts | 89° |
| 2026-04-25 20:10 | 51.47704 | -0.45480 | 87 ft | 15 kts | 162° |
| 2026-04-25 20:10 | 51.47642 | -0.45469 | 85 ft | 8 kts | 179° |
| 2026-04-25 20:11 | 51.47613 | -0.45459 | 86 ft | 3 kts | 145° |
| 2026-04-25 20:11 | 51.47600 | -0.45427 | 88 ft | 4 kts | 110° |
| 2026-04-25 20:11 | 51.47598 | -0.45377 | 87 ft | 5 kts | 91° |
| 2026-04-25 20:11 | 51.47599 | -0.45318 | 87 ft | 6 kts | 89° |
| 2026-04-25 20:12 | 51.47598 | -0.45243 | 88 ft | 8 kts | 91° |
| 2026-04-25 20:12 | 51.47597 | -0.45146 | 87 ft | 10 kts | 91° |
| 2026-04-25 20:12 | 51.47596 | -0.45028 | 88 ft | 11 kts | 90° |
| 2026-04-25 20:12 | 51.47597 | -0.44940 | 89 ft | 12 kts | 89° |
| 2026-04-25 20:13 | 51.47600 | -0.44741 | 89 ft | 15 kts | 89° |
| 2026-04-25 20:13 | 51.47600 | -0.44561 | 88 ft | 18 kts | 90° |
| 2026-04-25 20:13 | 51.47600 | -0.44389 | 87 ft | 16 kts | 90° |
| 2026-04-25 20:13 | 51.47598 | -0.44207 | 86 ft | 13 kts | 93° |
| 2026-04-25 20:14 | 51.47578 | -0.44086 | 89 ft | 8 kts | 137° |
| 2026-04-25 20:14 | 51.47513 | -0.44065 | 85 ft | 11 kts | 178° |
| 2026-04-25 20:14 | 51.47429 | -0.44064 | 85 ft | 13 kts | 180° |
| 2026-04-25 20:14 | 51.47334 | -0.44066 | 85 ft | 14 kts | 180° |
| 2026-04-25 20:15 | 51.47246 | -0.44066 | 85 ft | 12 kts | 179° |
| 2026-04-25 20:15 | 51.47171 | -0.44063 | 85 ft | 10 kts | 178° |
| 2026-04-25 20:15 | 51.47107 | -0.44060 | 88 ft | 10 kts | 179° |
| 2026-04-25 20:15 | 51.47035 | -0.44059 | 85 ft | 10 kts | 180° |
| 2026-04-25 20:16 | 51.46973 | -0.44059 | 85 ft | 8 kts | 180° |
| 2026-04-25 20:16 | 51.46923 | -0.44059 | 85 ft | 6 kts | 180° |
| 2026-04-25 20:16 | 51.46872 | -0.44058 | 85 ft | 8 kts | 180° |
| 2026-04-25 20:16 | 51.46815 | -0.44057 | 85 ft | 10 kts | 179° |
| 2026-04-25 20:17 | 51.46736 | -0.44056 | 87 ft | 11 kts | 179° |
| 2026-04-25 20:17 | 51.46670 | -0.44088 | 86 ft | 10 kts | 245° |
| 2026-04-25 20:17 | 51.46667 | -0.44192 | 84 ft | 8 kts | 270° |
| 2026-04-25 20:17 | 51.46667 | -0.44290 | 85 ft | 9 kts | 269° |
| 2026-04-25 20:18 | 51.46665 | -0.44405 | 86 ft | 11 kts | 269° |
| 2026-04-25 20:18 | 51.46667 | -0.44518 | 87 ft | 9 kts | 285° |
| 2026-04-25 20:18 | 51.46716 | -0.44558 | 87 ft | 9 kts | 358° |
| 2026-04-25 20:18 | 51.46770 | -0.44556 | 85 ft | 7 kts | 2° |
| 2026-04-25 20:19 | 51.46811 | -0.44554 | 86 ft | 5 kts | 360° |
| 2026-04-25 20:19 | 51.46825 | -0.44577 | 88 ft | 2 kts | 287° |
| 2026-04-25 20:19 | 51.46824 | -0.44588 | 87 ft | 2 kts | 266° |
| 2026-04-25 20:19 | 51.46823 | -0.44629 | 85 ft | 5 kts | 266° |
| 2026-04-25 20:20 | 51.46821 | -0.44669 | 87 ft | 0 kts | 267° |
| 2026-04-25 20:20 | 51.46821 | -0.44673 | 87 ft | 0 kts | 268° |